sensor_id;sensor_type;location;lat;lon;timestamp;pressure;altitude;pressure_sealevel;temperature;humidity
9229;BME280;4649;42.644;23.284;2023-04-08T00:00:13;93052.31;;;6.43;67.30
9229;BME280;4649;42.644;23.284;2023-04-08T00:02:49;92940.59;;;5.65;68.02
9229;BME280;4649;42.644;23.284;2023-04-08T00:05:48;93101.13;;;6.70;68.30
9229;BME280;4649;42.644;23.284;2023-04-08T00:08:19;92907.84;;;5.32;67.63
9229;BME280;4649;42.644;23.284;2023-04-08T00:10:51;93050.56;;;6.40;67.88
9229;BME280;4649;42.644;23.284;2023-04-08T00:13:32;92971.53;;;5.75;67.37
9229;BME280;4649;42.644;23.284;2023-04-08T00:19:02;93091.06;;;6.51;68.57
9229;BME280;4649;42.644;23.284;2023-04-08T00:21:43;92982.50;;;5.86;67.83
9229;BME280;4649;42.644;23.284;2023-04-08T00:24:15;93021.66;;;6.06;67.68
9229;BME280;4649;42.644;23.284;2023-04-08T00:26:48;92878.91;;;4.98;69.27
9229;BME280;4649;42.644;23.284;2023-04-08T00:29:21;93069.38;;;6.26;70.25
9229;BME280;4649;42.644;23.284;2023-04-08T00:32:07;92867.81;;;4.91;69.63
9229;BME280;4649;42.644;23.284;2023-04-08T00:34:38;92991.97;;;5.72;69.45
9229;BME280;4649;42.644;23.284;2023-04-08T00:37:46;92905.09;;;5.03;68.67
9229;BME280;4649;42.644;23.284;2023-04-08T00:40:21;93089.75;;;5.43;71.90
9229;BME280;4649;42.644;23.284;2023-04-08T00:43:11;92960.63;;;4.65;73.25
9229;BME280;4649;42.644;23.284;2023-04-08T00:45:43;93012.94;;;4.84;73.61
9229;BME280;4649;42.644;23.284;2023-04-08T00:48:20;92949.22;;;4.23;73.72
9229;BME280;4649;42.644;23.284;2023-04-08T00:50:57;92900.19;;;3.76;75.82
9229;BME280;4649;42.644;23.284;2023-04-08T00:53:44;92893.28;;;3.61;75.75
9229;BME280;4649;42.644;23.284;2023-04-08T00:56:23;92911.34;;;3.34;78.01
9229;BME280;4649;42.644;23.284;2023-04-08T00:59:09;92881.16;;;3.33;76.75
9229;BME280;4649;42.644;23.284;2023-04-08T01:04:15;93094.63;;;4.24;80.00
9229;BME280;4649;42.644;23.284;2023-04-08T01:06:54;93081.25;;;4.15;79.83
9229;BME280;4649;42.644;23.284;2023-04-08T01:09:28;92972.34;;;3.71;79.33
9229;BME280;4649;42.644;23.284;2023-04-08T01:12:04;93103.41;;;4.66;79.02
9229;BME280;4649;42.644;23.284;2023-04-08T01:17:29;93025.94;;;4.03;78.13
9229;BME280;4649;42.644;23.284;2023-04-08T01:20:00;92941.00;;;3.54;79.10
9229;BME280;4649;42.644;23.284;2023-04-08T01:22:42;93027.28;;;4.08;79.27
9229;BME280;4649;42.644;23.284;2023-04-08T01:25:23;93027.63;;;3.74;80.70
9229;BME280;4649;42.644;23.284;2023-04-08T01:27:57;92904.25;;;3.04;81.06
9229;BME280;4649;42.644;23.284;2023-04-08T01:30:27;92879.00;;;2.87;80.06
9229;BME280;4649;42.644;23.284;2023-04-08T01:33:01;92909.00;;;2.82;82.76
9229;BME280;4649;42.644;23.284;2023-04-08T01:35:36;93059.56;;;4.04;84.18
9229;BME280;4649;42.644;23.284;2023-04-08T01:38:25;92881.81;;;3.10;82.06
9229;BME280;4649;42.644;23.284;2023-04-08T01:41:08;92905.59;;;3.08;79.47
9229;BME280;4649;42.644;23.284;2023-04-08T01:44:01;93031.75;;;3.93;80.26
9229;BME280;4649;42.644;23.284;2023-04-08T01:46:53;93024.00;;;4.04;79.59
9229;BME280;4649;42.644;23.284;2023-04-08T01:49:26;93028.03;;;3.90;79.62
9229;BME280;4649;42.644;23.284;2023-04-08T01:51:56;92910.50;;;3.01;79.44
9229;BME280;4649;42.644;23.284;2023-04-08T01:54:45;92948.47;;;3.32;78.68
9229;BME280;4649;42.644;23.284;2023-04-08T01:57:31;93097.97;;;4.51;80.29
9229;BME280;4649;42.644;23.284;2023-04-08T02:00:17;93036.31;;;4.51;79.57
9229;BME280;4649;42.644;23.284;2023-04-08T02:02:50;92983.50;;;4.43;78.37
9229;BME280;4649;42.644;23.284;2023-04-08T02:05:19;93038.00;;;5.04;77.05
9229;BME280;4649;42.644;23.284;2023-04-08T02:07:59;92947.50;;;4.44;76.43
9229;BME280;4649;42.644;23.284;2023-04-08T02:10:41;93126.53;;;5.74;76.25
9229;BME280;4649;42.644;23.284;2023-04-08T02:13:51;93002.25;;;4.98;75.52
9229;BME280;4649;42.644;23.284;2023-04-08T02:16:33;93135.88;;;6.02;75.37
9229;BME280;4649;42.644;23.284;2023-04-08T02:19:34;92930.56;;;4.84;75.80
9229;BME280;4649;42.644;23.284;2023-04-08T02:22:11;93052.41;;;5.77;74.68
9229;BME280;4649;42.644;23.284;2023-04-08T02:24:47;93080.81;;;5.83;74.91
9229;BME280;4649;42.644;23.284;2023-04-08T02:27:20;92933.88;;;4.80;74.37
9229;BME280;4649;42.644;23.284;2023-04-08T02:29:55;93063.19;;;5.68;75.72
9229;BME280;4649;42.644;23.284;2023-04-08T02:32:37;93066.41;;;5.72;75.50
9229;BME280;4649;42.644;23.284;2023-04-08T02:35:11;93031.59;;;5.63;75.14
9229;BME280;4649;42.644;23.284;2023-04-08T02:38:06;93076.34;;;5.80;74.29
9229;BME280;4649;42.644;23.284;2023-04-08T02:40:42;93008.94;;;5.26;74.44
9229;BME280;4649;42.644;23.284;2023-04-08T02:43:12;92922.69;;;4.81;74.90
9229;BME280;4649;42.644;23.284;2023-04-08T02:45:54;92945.03;;;5.01;73.77
9229;BME280;4649;42.644;23.284;2023-04-08T02:51:13;93077.88;;;5.96;75.56
9229;BME280;4649;42.644;23.284;2023-04-08T02:53:54;93014.38;;;5.55;74.27
9229;BME280;4649;42.644;23.284;2023-04-08T02:56:27;92938.44;;;4.88;74.15
9229;BME280;4649;42.644;23.284;2023-04-08T02:59:17;92942.31;;;4.87;74.82
9229;BME280;4649;42.644;23.284;2023-04-08T03:01:50;93017.47;;;5.39;72.92
9229;BME280;4649;42.644;23.284;2023-04-08T03:04:21;92984.69;;;4.97;74.16
9229;BME280;4649;42.644;23.284;2023-04-08T03:09:57;93089.47;;;5.64;74.01
9229;BME280;4649;42.644;23.284;2023-04-08T03:12:40;92894.78;;;4.50;73.12
9229;BME280;4649;42.644;23.284;2023-04-08T03:15:38;93024.72;;;5.24;73.32
9229;BME280;4649;42.644;23.284;2023-04-08T03:18:11;93127.69;;;5.97;73.13
9229;BME280;4649;42.644;23.284;2023-04-08T03:20:57;92931.66;;;4.78;71.53
9229;BME280;4649;42.644;23.284;2023-04-08T03:23:39;92929.44;;;4.77;72.63
9229;BME280;4649;42.644;23.284;2023-04-08T03:26:30;92955.41;;;5.08;72.17
9229;BME280;4649;42.644;23.284;2023-04-08T03:29:22;92936.56;;;4.80;73.41
9229;BME280;4649;42.644;23.284;2023-04-08T03:32:11;93101.22;;;5.90;73.93
9229;BME280;4649;42.644;23.284;2023-04-08T03:34:56;93026.84;;;5.43;74.57
9229;BME280;4649;42.644;23.284;2023-04-08T03:37:26;93132.25;;;5.91;75.19
9229;BME280;4649;42.644;23.284;2023-04-08T03:42:29;93001.19;;;4.17;77.46
9229;BME280;4649;42.644;23.284;2023-04-08T03:45:05;92919.25;;;3.78;78.92
9229;BME280;4649;42.644;23.284;2023-04-08T03:47:41;92926.19;;;3.85;77.63
9229;BME280;4649;42.644;23.284;2023-04-08T03:52:49;92950.78;;;3.74;78.02
9229;BME280;4649;42.644;23.284;2023-04-08T03:55:23;93047.28;;;4.30;78.53
9229;BME280;4649;42.644;23.284;2023-04-08T03:58:06;93122.47;;;4.68;79.12
9229;BME280;4649;42.644;23.284;2023-04-08T04:00:37;92914.94;;;2.95;81.08
9229;BME280;4649;42.644;23.284;2023-04-08T04:03:25;93118.75;;;4.15;82.06
9229;BME280;4649;42.644;23.284;2023-04-08T04:06:00;93131.63;;;4.84;81.04
9229;BME280;4649;42.644;23.284;2023-04-08T04:08:42;93122.81;;;4.93;79.41
9229;BME280;4649;42.644;23.284;2023-04-08T04:11:13;92939.13;;;3.27;79.37
9229;BME280;4649;42.644;23.284;2023-04-08T04:13:55;92991.22;;;3.67;81.81
9229;BME280;4649;42.644;23.284;2023-04-08T04:16:33;92939.88;;;3.78;80.63
9229;BME280;4649;42.644;23.284;2023-04-08T04:22:25;93002.97;;;4.20;77.84
9229;BME280;4649;42.644;23.284;2023-04-08T04:24:58;93059.56;;;4.45;80.43
9229;BME280;4649;42.644;23.284;2023-04-08T04:27:41;92925.69;;;3.63;79.87
9229;BME280;4649;42.644;23.284;2023-04-08T04:30:25;93136.63;;;5.33;79.45
9229;BME280;4649;42.644;23.284;2023-04-08T04:32:55;92931.94;;;4.01;78.48
9229;BME280;4649;42.644;23.284;2023-04-08T04:35:23;93018.22;;;4.70;78.24
9229;BME280;4649;42.644;23.284;2023-04-08T04:37:52;92929.72;;;4.32;77.95
9229;BME280;4649;42.644;23.284;2023-04-08T04:40:32;92922.72;;;4.34;76.75
9229;BME280;4649;42.644;23.284;2023-04-08T04:43:20;92956.19;;;4.62;75.85
9229;BME280;4649;42.644;23.284;2023-04-08T04:46:10;93056.72;;;5.51;75.89
9229;BME280;4649;42.644;23.284;2023-04-08T04:48:40;93005.44;;;5.11;74.66
9229;BME280;4649;42.644;23.284;2023-04-08T04:51:36;93050.88;;;5.38;74.73
9229;BME280;4649;42.644;23.284;2023-04-08T04:54:20;93043.50;;;5.24;74.48
9229;BME280;4649;42.644;23.284;2023-04-08T04:57:00;93097.84;;;5.80;74.85
9229;BME280;4649;42.644;23.284;2023-04-08T04:59:32;93031.94;;;4.95;75.20
9229;BME280;4649;42.644;23.284;2023-04-08T05:02:18;93153.44;;;5.65;76.29
9229;BME280;4649;42.644;23.284;2023-04-08T05:04:50;93147.09;;;5.54;75.85
9229;BME280;4649;42.644;23.284;2023-04-08T05:07:27;93030.63;;;4.67;77.39
9229;BME280;4649;42.644;23.284;2023-04-08T05:10:00;92951.25;;;4.61;76.32
9229;BME280;4649;42.644;23.284;2023-04-08T05:12:45;92936.97;;;4.08;75.56
9229;BME280;4649;42.644;23.284;2023-04-08T05:15:23;92981.09;;;4.22;77.84
9229;BME280;4649;42.644;23.284;2023-04-08T05:18:07;92947.09;;;4.36;77.60
9229;BME280;4649;42.644;23.284;2023-04-08T05:20:58;92987.72;;;4.35;76.04
9229;BME280;4649;42.644;23.284;2023-04-08T05:23:56;93092.59;;;5.39;77.05
9229;BME280;4649;42.644;23.284;2023-04-08T05:26:40;93117.56;;;6.29;74.10
9229;BME280;4649;42.644;23.284;2023-04-08T05:29:18;93161.81;;;6.57;72.49
9229;BME280;4649;42.644;23.284;2023-04-08T05:31:54;93152.63;;;6.64;72.09
9229;BME280;4649;42.644;23.284;2023-04-08T05:34:43;93155.66;;;6.28;73.04
9229;BME280;4649;42.644;23.284;2023-04-08T05:37:35;93038.97;;;5.77;71.49
9229;BME280;4649;42.644;23.284;2023-04-08T05:40:31;92970.19;;;5.27;71.31
9229;BME280;4649;42.644;23.284;2023-04-08T05:43:33;93072.41;;;6.48;70.71
9229;BME280;4649;42.644;23.284;2023-04-08T05:46:05;92959.88;;;6.06;68.17
9229;BME280;4649;42.644;23.284;2023-04-08T05:48:37;93156.88;;;7.67;67.63
9229;BME280;4649;42.644;23.284;2023-04-08T05:51:31;93153.88;;;7.45;67.75
9229;BME280;4649;42.644;23.284;2023-04-08T05:54:04;93026.75;;;6.82;67.77
9229;BME280;4649;42.644;23.284;2023-04-08T05:56:45;93130.53;;;7.96;65.43
9229;BME280;4649;42.644;23.284;2023-04-08T05:59:15;93148.66;;;8.36;64.52
9229;BME280;4649;42.644;23.284;2023-04-08T06:01:57;92980.50;;;7.18;63.60
9229;BME280;4649;42.644;23.284;2023-04-08T06:04:30;93146.19;;;8.57;61.96
9229;BME280;4649;42.644;23.284;2023-04-08T06:07:18;93149.72;;;8.69;62.07
9229;BME280;4649;42.644;23.284;2023-04-08T06:09:52;93008.63;;;7.56;61.69
9229;BME280;4649;42.644;23.284;2023-04-08T06:12:23;93150.22;;;8.67;62.08
9229;BME280;4649;42.644;23.284;2023-04-08T06:14:53;93084.53;;;8.45;61.63
9229;BME280;4649;42.644;23.284;2023-04-08T06:17:53;92946.53;;;7.20;62.37
9229;BME280;4649;42.644;23.284;2023-04-08T06:20:28;92976.00;;;7.49;62.12
9229;BME280;4649;42.644;23.284;2023-04-08T06:23:15;93053.97;;;8.28;62.76
9229;BME280;4649;42.644;23.284;2023-04-08T06:26:09;93069.56;;;7.99;60.38
9229;BME280;4649;42.644;23.284;2023-04-08T06:28:53;93154.97;;;8.78;62.70
9229;BME280;4649;42.644;23.284;2023-04-08T06:31:42;93109.19;;;7.53;63.07
9229;BME280;4649;42.644;23.284;2023-04-08T06:35:01;92977.22;;;5.77;66.51
9229;BME280;4649;42.644;23.284;2023-04-08T06:37:31;92933.31;;;5.13;70.10
9229;BME280;4649;42.644;23.284;2023-04-08T06:40:06;93163.91;;;7.11;68.40
9229;BME280;4649;42.644;23.284;2023-04-08T06:42:36;93024.03;;;6.62;67.71
9229;BME280;4649;42.644;23.284;2023-04-08T06:45:16;93077.69;;;7.39;68.15
9229;BME280;4649;42.644;23.284;2023-04-08T06:47:44;93052.31;;;7.86;65.23
9229;BME280;4649;42.644;23.284;2023-04-08T06:50:12;93040.63;;;7.94;67.65
9229;BME280;4649;42.644;23.284;2023-04-08T06:52:42;92965.84;;;7.89;61.94
9229;BME280;4649;42.644;23.284;2023-04-08T06:55:10;93035.97;;;7.29;63.16
9229;BME280;4649;42.644;23.284;2023-04-08T06:57:45;93179.88;;;7.14;68.38
9229;BME280;4649;42.644;23.284;2023-04-08T07:00:16;92962.47;;;6.84;65.83
9229;BME280;4649;42.644;23.284;2023-04-08T07:02:45;92954.06;;;7.36;64.27
9229;BME280;4649;42.644;23.284;2023-04-08T07:05:15;93084.66;;;8.61;63.04
9229;BME280;4649;42.644;23.284;2023-04-08T07:07:44;93107.84;;;9.04;61.64
9229;BME280;4649;42.644;23.284;2023-04-08T07:10:19;93156.03;;;9.53;60.13
9229;BME280;4649;42.644;23.284;2023-04-08T07:12:48;92971.63;;;8.58;59.35
9229;BME280;4649;42.644;23.284;2023-04-08T07:15:39;93056.56;;;9.46;57.30
9229;BME280;4649;42.644;23.284;2023-04-08T07:18:08;93055.16;;;9.61;56.08
9229;BME280;4649;42.644;23.284;2023-04-08T07:20:51;93136.75;;;10.18;57.56
9229;BME280;4649;42.644;23.284;2023-04-08T07:23:23;93188.06;;;10.65;56.83
9229;BME280;4649;42.644;23.284;2023-04-08T07:37:29;92990.88;;;9.92;53.44
9229;BME280;4649;42.644;23.284;2023-04-08T07:40:25;93138.91;;;10.93;53.31
9229;BME280;4649;42.644;23.284;2023-04-08T07:43:14;93186.44;;;11.16;54.44
9229;BME280;4649;42.644;23.284;2023-04-08T07:48:40;93149.47;;;10.81;55.72
9229;BME280;4649;42.644;23.284;2023-04-08T07:51:28;93009.63;;;10.18;54.09
9229;BME280;4649;42.644;23.284;2023-04-08T07:54:27;93030.78;;;10.19;53.62
9229;BME280;4649;42.644;23.284;2023-04-08T07:57:37;93102.44;;;10.84;52.93
9229;BME280;4649;42.644;23.284;2023-04-08T08:00:26;93223.66;;;11.81;52.83
9229;BME280;4649;42.644;23.284;2023-04-08T08:08:30;93215.19;;;12.23;51.29
9229;BME280;4649;42.644;23.284;2023-04-08T09:28:36;93046.56;;;10.75;52.76
9229;BME280;4649;42.644;23.284;2023-04-08T09:34:14;93027.78;;;11.54;51.58
9229;BME280;4649;42.644;23.284;2023-04-08T09:36:43;93094.25;;;12.33;48.06
9229;BME280;4649;42.644;23.284;2023-04-08T10:57:03;93165.09;;;9.91;62.39
9229;BME280;4649;42.644;23.284;2023-04-08T11:00:09;93012.94;;;9.16;62.84
9229;BME280;4649;42.644;23.284;2023-04-08T11:02:55;93059.06;;;9.13;62.29
9229;BME280;4649;42.644;23.284;2023-04-08T11:08:34;92972.84;;;8.62;63.52
9229;BME280;4649;42.644;23.284;2023-04-08T11:11:22;92962.19;;;8.84;61.05
9229;BME280;4649;42.644;23.284;2023-04-08T11:29:24;92939.91;;;8.89;60.68
9229;BME280;4649;42.644;23.284;2023-04-08T11:44:47;93046.50;;;10.15;56.60
9229;BME280;4649;42.644;23.284;2023-04-08T12:48:45;92876.59;;;8.38;59.80
9229;BME280;4649;42.644;23.284;2023-04-08T12:51:50;93013.16;;;9.13;61.04
9229;BME280;4649;42.644;23.284;2023-04-08T13:03:02;93093.97;;;9.64;61.39
9229;BME280;4649;42.644;23.284;2023-04-08T13:06:26;92957.19;;;9.13;62.35
9229;BME280;4649;42.644;23.284;2023-04-08T13:09:18;92868.72;;;8.81;61.25
9229;BME280;4649;42.644;23.284;2023-04-08T13:39:22;93026.16;;;9.62;64.48
9229;BME280;4649;42.644;23.284;2023-04-08T13:45:34;93064.06;;;9.78;66.03
9229;BME280;4649;42.644;23.284;2023-04-08T13:48:40;92950.19;;;8.85;66.89
9229;BME280;4649;42.644;23.284;2023-04-08T13:51:23;92867.41;;;8.60;67.60
9229;BME280;4649;42.644;23.284;2023-04-08T13:54:09;93002.88;;;9.17;70.50
9229;BME280;4649;42.644;23.284;2023-04-08T13:57:35;92998.22;;;9.17;73.42
9229;BME280;4649;42.644;23.284;2023-04-08T14:00:28;92935.78;;;8.57;72.80
9229;BME280;4649;42.644;23.284;2023-04-08T14:03:36;93066.72;;;9.20;71.33
9229;BME280;4649;42.644;23.284;2023-04-08T14:06:28;92964.47;;;8.91;71.88
9229;BME280;4649;42.644;23.284;2023-04-08T14:09:03;92933.91;;;9.16;70.76
9229;BME280;4649;42.644;23.284;2023-04-08T14:11:43;92994.78;;;9.17;70.31
9229;BME280;4649;42.644;23.284;2023-04-08T14:14:23;92859.72;;;8.43;71.64
9229;BME280;4649;42.644;23.284;2023-04-08T14:16:54;92940.19;;;8.97;71.44
9229;BME280;4649;42.644;23.284;2023-04-08T14:50:56;92935.91;;;8.79;73.43
9229;BME280;4649;42.644;23.284;2023-04-08T14:53:49;92968.84;;;8.47;74.51
9229;BME280;4649;42.644;23.284;2023-04-08T14:56:50;93014.88;;;9.10;73.29
9229;BME280;4649;42.644;23.284;2023-04-08T15:05:22;92856.72;;;7.18;75.75
9229;BME280;4649;42.644;23.284;2023-04-08T15:08:26;92849.72;;;7.26;76.11
9229;BME280;4649;42.644;23.284;2023-04-08T19:03:50;93046.44;;;6.73;100.00
9229;BME280;4649;42.644;23.284;2023-04-08T19:06:49;93264.75;;;8.47;100.00
9229;BME280;4649;42.644;23.284;2023-04-08T19:10:29;93074.38;;;7.30;100.00
9229;BME280;4649;42.644;23.284;2023-04-08T19:50:02;93125.59;;;7.01;100.00
9229;BME280;4649;42.644;23.284;2023-04-08T19:56:12;93296.38;;;7.63;100.00
9229;BME280;4649;42.644;23.284;2023-04-08T20:04:02;93094.63;;;5.67;100.00
9229;BME280;4649;42.644;23.284;2023-04-08T20:13:23;93124.22;;;6.19;100.00
9229;BME280;4649;42.644;23.284;2023-04-08T20:16:22;93250.66;;;6.91;100.00
9229;BME280;4649;42.644;23.284;2023-04-08T20:19:18;93107.03;;;5.65;100.00
9229;BME280;4649;42.644;23.284;2023-04-08T20:24:47;93100.59;;;5.48;100.00
9229;BME280;4649;42.644;23.284;2023-04-08T20:37:08;93173.50;;;6.68;100.00
9229;BME280;4649;42.644;23.284;2023-04-08T20:40:10;93190.56;;;6.80;100.00
9229;BME280;4649;42.644;23.284;2023-04-08T20:48:07;93163.63;;;6.37;100.00
9229;BME280;4649;42.644;23.284;2023-04-08T20:51:14;93107.88;;;5.94;100.00
9229;BME280;4649;42.644;23.284;2023-04-08T21:03:56;93293.91;;;7.45;100.00
9229;BME280;4649;42.644;23.284;2023-04-08T21:31:52;93145.03;;;6.62;100.00
9229;BME280;4649;42.644;23.284;2023-04-08T21:34:42;93141.59;;;6.76;100.00
9229;BME280;4649;42.644;23.284;2023-04-08T21:39:58;93167.34;;;6.68;100.00
9229;BME280;4649;42.644;23.284;2023-04-08T21:43:02;93144.28;;;6.76;100.00
9229;BME280;4649;42.644;23.284;2023-04-08T21:46:17;93213.81;;;7.26;100.00
9229;BME280;4649;42.644;23.284;2023-04-08T21:49:18;93075.09;;;5.90;100.00
9229;BME280;4649;42.644;23.284;2023-04-08T21:52:17;93086.22;;;5.98;100.00
9229;BME280;4649;42.644;23.284;2023-04-08T21:55:05;93187.22;;;6.85;100.00
9229;BME280;4649;42.644;23.284;2023-04-08T22:03:35;93265.03;;;7.46;100.00
9229;BME280;4649;42.644;23.284;2023-04-08T22:06:11;93115.59;;;6.15;100.00
9229;BME280;4649;42.644;23.284;2023-04-08T22:09:04;93259.47;;;6.92;100.00
9229;BME280;4649;42.644;23.284;2023-04-08T22:15:34;93135.50;;;5.95;100.00
9229;BME280;4649;42.644;23.284;2023-04-08T22:18:16;93132.50;;;5.93;100.00
9229;BME280;4649;42.644;23.284;2023-04-08T22:21:08;93099.81;;;5.56;100.00
9229;BME280;4649;42.644;23.284;2023-04-08T22:27:40;93178.56;;;6.52;100.00
9229;BME280;4649;42.644;23.284;2023-04-08T22:30:40;93057.13;;;5.82;100.00
9229;BME280;4649;42.644;23.284;2023-04-08T22:33:44;93071.84;;;5.86;100.00
9229;BME280;4649;42.644;23.284;2023-04-08T22:36:28;93258.75;;;6.91;100.00
9229;BME280;4649;42.644;23.284;2023-04-08T22:39:25;93253.19;;;7.09;100.00
9229;BME280;4649;42.644;23.284;2023-04-08T22:42:08;93258.25;;;6.78;100.00
9229;BME280;4649;42.644;23.284;2023-04-08T22:45:04;93108.81;;;6.05;100.00
9229;BME280;4649;42.644;23.284;2023-04-08T22:47:54;93201.03;;;6.78;100.00
9229;BME280;4649;42.644;23.284;2023-04-08T22:50:40;93129.97;;;6.41;100.00
9229;BME280;4649;42.644;23.284;2023-04-08T22:56:38;93075.19;;;5.96;100.00
9229;BME280;4649;42.644;23.284;2023-04-08T23:05:02;93062.53;;;5.73;100.00
9229;BME280;4649;42.644;23.284;2023-04-08T23:07:55;93046.38;;;5.58;100.00
9229;BME280;4649;42.644;23.284;2023-04-08T23:13:30;93059.72;;;5.91;100.00
9229;BME280;4649;42.644;23.284;2023-04-08T23:16:16;93239.69;;;6.95;100.00
9229;BME280;4649;42.644;23.284;2023-04-08T23:27:37;93238.16;;;7.03;100.00
9229;BME280;4649;42.644;23.284;2023-04-08T23:30:21;93010.50;;;5.33;100.00
9229;BME280;4649;42.644;23.284;2023-04-08T23:36:07;93230.84;;;6.51;100.00
9229;BME280;4649;42.644;23.284;2023-04-08T23:38:59;93222.44;;;6.20;100.00
9229;BME280;4649;42.644;23.284;2023-04-08T23:42:29;93139.16;;;5.36;100.00
